createdAt,value
2023-05-24T00:08:38.043Z,85.0
2023-05-24T00:21:38.132Z,86.0
2023-05-24T00:34:38.088Z,86.0
2023-05-24T00:47:38.179Z,86.0
2023-05-24T01:00:38.183Z,86.0
2023-05-24T01:13:38.232Z,87.0
2023-05-24T01:26:38.226Z,87.0
2023-05-24T01:39:38.280Z,87.0
2023-05-24T01:52:38.290Z,88.0
2023-05-24T02:05:38.294Z,88.0
2023-05-24T02:18:38.355Z,88.0
2023-05-24T02:31:38.394Z,89.0
2023-05-24T02:44:38.392Z,88.0
2023-05-24T02:57:38.395Z,87.0
2023-05-24T03:10:38.440Z,87.0
2023-05-24T03:23:38.474Z,81.0
2023-05-24T03:36:38.481Z,80.0
2023-05-24T03:49:38.505Z,80.0
2023-05-24T04:02:38.520Z,82.0
2023-05-24T04:15:38.505Z,82.0
2023-05-24T04:28:38.509Z,83.0
2023-05-24T04:41:38.588Z,82.0
2023-05-24T04:54:38.617Z,82.0
2023-05-24T05:07:38.605Z,83.0
2023-05-24T05:20:38.617Z,82.0
2023-05-24T05:33:38.655Z,78.0
2023-05-24T05:46:38.779Z,80.0
2023-05-24T05:59:38.859Z,80.0
2023-05-24T06:12:38.729Z,80.0
2023-05-24T06:25:38.752Z,78.0
2023-05-24T06:38:38.813Z,73.0
2023-05-24T06:51:38.848Z,67.0
2023-05-24T07:04:38.863Z,61.0
2023-05-24T07:17:38.885Z,59.0
2023-05-24T07:30:38.894Z,60.0
2023-05-24T07:43:38.870Z,60.0
2023-05-24T07:56:38.916Z,59.0
2023-05-24T08:09:38.950Z,61.0
2023-05-24T08:22:38.960Z,58.0
2023-05-24T08:35:38.956Z,56.0
2023-05-24T08:48:38.978Z,55.0
2023-05-24T09:01:39.028Z,53.0
2023-05-24T09:14:39.116Z,50.0
2023-05-24T09:27:39.345Z,52.0
2023-05-24T09:40:39.148Z,52.0
2023-05-24T09:53:39.168Z,53.0
2023-05-24T10:06:39.171Z,52.0
2023-05-24T10:19:39.168Z,53.0
2023-05-24T10:32:39.272Z,54.0
2023-05-24T10:45:39.194Z,54.0
2023-05-24T10:58:39.189Z,54.0
2023-05-24T11:11:39.208Z,49.0
2023-05-24T11:24:39.296Z,46.0
2023-05-24T11:37:46.292Z,49.0
2023-05-24T11:50:48.667Z,49.0
2023-05-24T12:03:39.499Z,51.0
2023-05-24T12:16:39.434Z,52.0
2023-05-24T12:29:39.437Z,47.0
2023-05-24T12:42:39.427Z,48.0
2023-05-24T12:55:39.460Z,47.0
2023-05-24T13:08:40.938Z,48.0
2023-05-24T13:21:39.570Z,48.0
2023-05-24T13:34:39.444Z,45.0
2023-05-24T13:47:40.690Z,43.0
2023-05-24T14:00:39.435Z,50.0
2023-05-24T14:26:39.463Z,53.0
2023-05-24T14:39:39.459Z,51.0
2023-05-24T14:52:39.532Z,48.0
2023-05-24T15:05:39.822Z,55.0
2023-05-24T15:18:39.470Z,55.0
2023-05-24T15:31:39.638Z,49.0
2023-05-24T15:44:39.579Z,51.0
2023-05-24T15:57:39.583Z,52.0
2023-05-24T16:10:39.622Z,52.0
2023-05-24T16:23:39.595Z,51.0
2023-05-24T16:36:39.664Z,52.0
2023-05-24T16:49:39.639Z,53.0
2023-05-24T17:02:39.729Z,58.0
2023-05-24T17:15:39.669Z,60.0
2023-05-24T17:28:39.708Z,63.0
2023-05-24T17:41:39.675Z,65.0
2023-05-24T17:54:39.666Z,68.0
2023-05-24T18:07:39.738Z,70.0
2023-05-24T18:20:39.841Z,69.0
2023-05-24T18:33:39.813Z,70.0
2023-05-24T18:46:39.833Z,71.0
2023-05-24T18:59:39.812Z,72.0
2023-05-24T19:12:39.867Z,73.0
2023-05-24T19:25:41.600Z,75.0
2023-05-24T19:38:39.903Z,71.0
2023-05-24T19:51:39.890Z,70.0
2023-05-24T20:04:39.886Z,71.0
2023-05-24T20:17:39.913Z,71.0
2023-05-24T20:30:39.906Z,71.0
2023-05-24T20:43:39.931Z,70.0
2023-05-24T20:56:40.438Z,73.0
2023-05-24T21:09:40.409Z,71.0
2023-05-24T21:22:40.056Z,73.0
2023-05-24T21:35:40.511Z,74.0
2023-05-24T21:48:40.132Z,76.0
2023-05-24T22:01:40.404Z,77.0
2023-05-24T22:14:40.190Z,76.0
2023-05-24T22:27:40.431Z,77.0
2023-05-24T22:40:40.531Z,75.0
2023-05-24T22:53:40.451Z,74.0
2023-05-24T23:06:40.241Z,73.0
2023-05-24T23:19:40.447Z,74.0
2023-05-24T23:32:40.314Z,73.0
2023-05-24T23:45:40.401Z,75.0
2023-05-24T23:58:40.457Z,83.0
